sensor_id;sensor_type;location;lat;lon;timestamp;P1;durP1;ratioP1;P2;durP2;ratioP2
67272;SDS011;54190;49.770;9.250;2023-02-15T00:01:42;36.47;;;18.00;;
67272;SDS011;54190;49.770;9.250;2023-02-15T00:04:08;36.70;;;19.27;;
67272;SDS011;54190;49.770;9.250;2023-02-15T00:06:35;38.07;;;19.57;;
67272;SDS011;54190;49.770;9.250;2023-02-15T00:09:01;38.13;;;19.20;;
67272;SDS011;54190;49.770;9.250;2023-02-15T00:11:27;37.80;;;20.33;;
67272;SDS011;54190;49.770;9.250;2023-02-15T00:14:10;36.80;;;18.43;;
67272;SDS011;54190;49.770;9.250;2023-02-15T00:16:54;39.07;;;19.50;;
67272;SDS011;54190;49.770;9.250;2023-02-15T00:19:20;35.13;;;18.20;;
67272;SDS011;54190;49.770;9.250;2023-02-15T00:21:47;37.00;;;17.80;;
67272;SDS011;54190;49.770;9.250;2023-02-15T00:24:14;39.73;;;19.27;;
67272;SDS011;54190;49.770;9.250;2023-02-15T00:26:41;34.73;;;17.10;;
67272;SDS011;54190;49.770;9.250;2023-02-15T00:29:09;40.50;;;19.67;;
67272;SDS011;54190;49.770;9.250;2023-02-15T00:31:35;42.70;;;19.43;;
67272;SDS011;54190;49.770;9.250;2023-02-15T00:34:06;39.63;;;19.83;;
67272;SDS011;54190;49.770;9.250;2023-02-15T00:36:43;40.50;;;18.70;;
67272;SDS011;54190;49.770;9.250;2023-02-15T00:39:09;39.20;;;18.90;;
67272;SDS011;54190;49.770;9.250;2023-02-15T00:41:35;41.13;;;18.90;;
67272;SDS011;54190;49.770;9.250;2023-02-15T00:44:05;34.47;;;16.80;;
67272;SDS011;54190;49.770;9.250;2023-02-15T00:46:31;34.47;;;16.97;;
67272;SDS011;54190;49.770;9.250;2023-02-15T00:48:57;36.73;;;19.40;;
67272;SDS011;54190;49.770;9.250;2023-02-15T00:51:23;37.07;;;17.70;;
67272;SDS011;54190;49.770;9.250;2023-02-15T00:53:49;40.57;;;19.80;;
67272;SDS011;54190;49.770;9.250;2023-02-15T00:56:15;39.63;;;18.30;;
67272;SDS011;54190;49.770;9.250;2023-02-15T00:58:41;37.23;;;18.27;;
67272;SDS011;54190;49.770;9.250;2023-02-15T01:01:12;33.43;;;17.07;;
67272;SDS011;54190;49.770;9.250;2023-02-15T01:03:39;36.60;;;18.37;;
67272;SDS011;54190;49.770;9.250;2023-02-15T01:06:08;39.37;;;18.47;;
67272;SDS011;54190;49.770;9.250;2023-02-15T01:08:34;37.17;;;16.97;;
67272;SDS011;54190;49.770;9.250;2023-02-15T01:11:07;38.63;;;18.43;;
67272;SDS011;54190;49.770;9.250;2023-02-15T01:13:35;32.50;;;16.70;;
67272;SDS011;54190;49.770;9.250;2023-02-15T01:16:01;36.30;;;18.50;;
67272;SDS011;54190;49.770;9.250;2023-02-15T01:18:27;35.80;;;17.60;;
67272;SDS011;54190;49.770;9.250;2023-02-15T01:20:53;34.20;;;17.27;;
67272;SDS011;54190;49.770;9.250;2023-02-15T01:23:18;38.97;;;17.90;;
67272;SDS011;54190;49.770;9.250;2023-02-15T01:25:45;37.60;;;17.17;;
67272;SDS011;54190;49.770;9.250;2023-02-15T01:28:11;38.23;;;17.17;;
67272;SDS011;54190;49.770;9.250;2023-02-15T01:30:38;35.83;;;17.23;;
67272;SDS011;54190;49.770;9.250;2023-02-15T01:33:03;39.97;;;18.80;;
67272;SDS011;54190;49.770;9.250;2023-02-15T01:35:30;38.17;;;18.00;;
67272;SDS011;54190;49.770;9.250;2023-02-15T01:37:56;37.60;;;19.10;;
67272;SDS011;54190;49.770;9.250;2023-02-15T01:40:23;40.03;;;19.47;;
67272;SDS011;54190;49.770;9.250;2023-02-15T01:42:51;38.43;;;19.20;;
67272;SDS011;54190;49.770;9.250;2023-02-15T01:45:25;40.13;;;19.80;;
67272;SDS011;54190;49.770;9.250;2023-02-15T01:47:54;45.47;;;19.90;;
67272;SDS011;54190;49.770;9.250;2023-02-15T01:50:42;36.50;;;18.60;;
67272;SDS011;54190;49.770;9.250;2023-02-15T01:53:19;40.77;;;18.20;;
67272;SDS011;54190;49.770;9.250;2023-02-15T01:55:52;44.93;;;20.07;;
67272;SDS011;54190;49.770;9.250;2023-02-15T01:58:22;41.63;;;20.57;;
67272;SDS011;54190;49.770;9.250;2023-02-15T02:00:50;42.97;;;18.90;;
67272;SDS011;54190;49.770;9.250;2023-02-15T02:03:16;41.77;;;19.60;;
67272;SDS011;54190;49.770;9.250;2023-02-15T02:05:42;40.67;;;18.90;;
67272;SDS011;54190;49.770;9.250;2023-02-15T02:08:11;40.33;;;18.97;;
67272;SDS011;54190;49.770;9.250;2023-02-15T02:10:36;44.13;;;20.33;;
67272;SDS011;54190;49.770;9.250;2023-02-15T02:13:03;38.53;;;18.67;;
67272;SDS011;54190;49.770;9.250;2023-02-15T02:34:21;44.37;;;19.03;;
67272;SDS011;54190;49.770;9.250;2023-02-15T02:39:46;45.63;;;19.30;;
67272;SDS011;54190;49.770;9.250;2023-02-15T02:45:06;42.60;;;18.80;;
67272;SDS011;54190;49.770;9.250;2023-02-15T02:47:46;37.73;;;18.60;;
67272;SDS011;54190;49.770;9.250;2023-02-15T02:50:22;43.37;;;18.40;;
67272;SDS011;54190;49.770;9.250;2023-02-15T02:52:51;41.63;;;19.93;;
67272;SDS011;54190;49.770;9.250;2023-02-15T02:55:23;37.53;;;18.60;;
67272;SDS011;54190;49.770;9.250;2023-02-15T02:57:55;42.37;;;19.50;;
67272;SDS011;54190;49.770;9.250;2023-02-15T03:00:38;37.37;;;17.80;;
67272;SDS011;54190;49.770;9.250;2023-02-15T03:03:11;37.17;;;17.87;;
67272;SDS011;54190;49.770;9.250;2023-02-15T03:05:43;38.73;;;17.60;;
67272;SDS011;54190;49.770;9.250;2023-02-15T03:08:13;36.43;;;18.60;;
67272;SDS011;54190;49.770;9.250;2023-02-15T03:10:46;36.50;;;18.20;;
67272;SDS011;54190;49.770;9.250;2023-02-15T03:13:18;38.17;;;18.60;;
67272;SDS011;54190;49.770;9.250;2023-02-15T03:15:46;46.20;;;18.63;;
67272;SDS011;54190;49.770;9.250;2023-02-15T03:18:33;36.80;;;17.40;;
67272;SDS011;54190;49.770;9.250;2023-02-15T03:21:05;45.00;;;18.23;;
67272;SDS011;54190;49.770;9.250;2023-02-15T03:23:34;40.23;;;19.43;;
67272;SDS011;54190;49.770;9.250;2023-02-15T03:26:03;43.13;;;19.20;;
67272;SDS011;54190;49.770;9.250;2023-02-15T03:28:35;42.90;;;18.83;;
67272;SDS011;54190;49.770;9.250;2023-02-15T03:31:06;43.07;;;19.80;;
67272;SDS011;54190;49.770;9.250;2023-02-15T03:33:33;41.43;;;20.23;;
67272;SDS011;54190;49.770;9.250;2023-02-15T03:36:15;44.47;;;20.77;;
67272;SDS011;54190;49.770;9.250;2023-02-15T03:39:02;42.87;;;19.20;;
67272;SDS011;54190;49.770;9.250;2023-02-15T03:41:34;40.23;;;19.67;;
67272;SDS011;54190;49.770;9.250;2023-02-15T03:47:13;50.00;;;19.73;;
67272;SDS011;54190;49.770;9.250;2023-02-15T03:49:43;36.77;;;17.73;;
67272;SDS011;54190;49.770;9.250;2023-02-15T03:52:13;41.80;;;19.37;;
67272;SDS011;54190;49.770;9.250;2023-02-15T03:54:41;42.10;;;19.30;;
67272;SDS011;54190;49.770;9.250;2023-02-15T03:57:16;48.47;;;18.30;;
67272;SDS011;54190;49.770;9.250;2023-02-15T04:00:05;42.00;;;19.67;;
67272;SDS011;54190;49.770;9.250;2023-02-15T04:03:19;45.90;;;18.83;;
67272;SDS011;54190;49.770;9.250;2023-02-15T04:05:57;39.23;;;18.60;;
67272;SDS011;54190;49.770;9.250;2023-02-15T04:08:22;39.13;;;18.20;;
67272;SDS011;54190;49.770;9.250;2023-02-15T04:11:08;41.73;;;18.50;;
67272;SDS011;54190;49.770;9.250;2023-02-15T04:13:33;35.97;;;16.83;;
67272;SDS011;54190;49.770;9.250;2023-02-15T04:15:59;38.43;;;18.10;;
67272;SDS011;54190;49.770;9.250;2023-02-15T04:18:38;39.30;;;17.27;;
67272;SDS011;54190;49.770;9.250;2023-02-15T04:21:25;45.10;;;18.63;;
67272;SDS011;54190;49.770;9.250;2023-02-15T04:24:11;34.67;;;16.87;;
67272;SDS011;54190;49.770;9.250;2023-02-15T04:26:56;42.03;;;17.80;;
67272;SDS011;54190;49.770;9.250;2023-02-15T04:29:23;37.37;;;16.63;;
67272;SDS011;54190;49.770;9.250;2023-02-15T04:31:50;31.83;;;15.67;;
67272;SDS011;54190;49.770;9.250;2023-02-15T04:34:17;33.20;;;16.33;;
67272;SDS011;54190;49.770;9.250;2023-02-15T04:36:43;39.47;;;19.57;;
67272;SDS011;54190;49.770;9.250;2023-02-15T04:39:09;40.03;;;18.03;;
67272;SDS011;54190;49.770;9.250;2023-02-15T04:41:37;42.80;;;17.83;;
67272;SDS011;54190;49.770;9.250;2023-02-15T04:44:03;38.20;;;16.17;;
67272;SDS011;54190;49.770;9.250;2023-02-15T04:46:28;36.53;;;17.50;;
67272;SDS011;54190;49.770;9.250;2023-02-15T04:48:54;33.03;;;16.37;;
67272;SDS011;54190;49.770;9.250;2023-02-15T04:51:20;35.90;;;17.47;;
67272;SDS011;54190;49.770;9.250;2023-02-15T04:53:46;36.70;;;17.53;;
67272;SDS011;54190;49.770;9.250;2023-02-15T04:56:12;35.03;;;16.17;;
67272;SDS011;54190;49.770;9.250;2023-02-15T04:58:38;40.70;;;17.93;;
67272;SDS011;54190;49.770;9.250;2023-02-15T05:01:06;34.70;;;16.57;;
67272;SDS011;54190;49.770;9.250;2023-02-15T05:03:33;33.90;;;14.90;;
67272;SDS011;54190;49.770;9.250;2023-02-15T05:05:59;34.83;;;17.70;;
67272;SDS011;54190;49.770;9.250;2023-02-15T05:08:25;33.73;;;17.10;;
67272;SDS011;54190;49.770;9.250;2023-02-15T05:10:50;31.83;;;15.03;;
67272;SDS011;54190;49.770;9.250;2023-02-15T05:13:16;34.93;;;16.77;;
67272;SDS011;54190;49.770;9.250;2023-02-15T05:15:46;34.70;;;17.20;;
67272;SDS011;54190;49.770;9.250;2023-02-15T05:18:16;35.80;;;14.97;;
67272;SDS011;54190;49.770;9.250;2023-02-15T05:20:43;37.13;;;16.60;;
67272;SDS011;54190;49.770;9.250;2023-02-15T05:23:09;35.70;;;17.83;;
67272;SDS011;54190;49.770;9.250;2023-02-15T05:25:34;38.87;;;17.47;;
67272;SDS011;54190;49.770;9.250;2023-02-15T05:28:19;40.90;;;17.10;;
67272;SDS011;54190;49.770;9.250;2023-02-15T05:30:48;35.33;;;15.77;;
67272;SDS011;54190;49.770;9.250;2023-02-15T05:33:26;37.00;;;18.07;;
67272;SDS011;54190;49.770;9.250;2023-02-15T05:35:52;37.33;;;17.20;;
67272;SDS011;54190;49.770;9.250;2023-02-15T05:38:18;37.07;;;16.93;;
67272;SDS011;54190;49.770;9.250;2023-02-15T05:40:43;37.63;;;17.23;;
67272;SDS011;54190;49.770;9.250;2023-02-15T05:43:09;42.27;;;19.70;;
67272;SDS011;54190;49.770;9.250;2023-02-15T05:45:35;35.57;;;17.83;;
67272;SDS011;54190;49.770;9.250;2023-02-15T05:48:00;33.90;;;17.13;;
67272;SDS011;54190;49.770;9.250;2023-02-15T05:50:26;31.20;;;15.83;;
67272;SDS011;54190;49.770;9.250;2023-02-15T05:52:52;33.80;;;14.87;;
67272;SDS011;54190;49.770;9.250;2023-02-15T05:55:18;30.53;;;14.80;;
67272;SDS011;54190;49.770;9.250;2023-02-15T05:57:43;26.67;;;13.90;;
67272;SDS011;54190;49.770;9.250;2023-02-15T06:00:09;31.23;;;14.90;;
67272;SDS011;54190;49.770;9.250;2023-02-15T06:02:39;31.80;;;14.80;;
67272;SDS011;54190;49.770;9.250;2023-02-15T06:05:05;29.30;;;14.07;;
67272;SDS011;54190;49.770;9.250;2023-02-15T06:07:31;24.90;;;13.37;;
67272;SDS011;54190;49.770;9.250;2023-02-15T06:09:57;29.10;;;14.37;;
67272;SDS011;54190;49.770;9.250;2023-02-15T06:12:23;32.53;;;13.87;;
67272;SDS011;54190;49.770;9.250;2023-02-15T06:14:48;28.30;;;14.10;;
67272;SDS011;54190;49.770;9.250;2023-02-15T06:17:14;25.90;;;13.10;;
67272;SDS011;54190;49.770;9.250;2023-02-15T06:19:41;30.23;;;13.77;;
67272;SDS011;54190;49.770;9.250;2023-02-15T06:22:08;29.43;;;14.53;;
67272;SDS011;54190;49.770;9.250;2023-02-15T06:24:33;33.93;;;15.60;;
67272;SDS011;54190;49.770;9.250;2023-02-15T06:26:59;31.20;;;13.77;;
67272;SDS011;54190;49.770;9.250;2023-02-15T06:29:24;22.83;;;12.10;;
67272;SDS011;54190;49.770;9.250;2023-02-15T06:31:50;29.97;;;14.20;;
67272;SDS011;54190;49.770;9.250;2023-02-15T06:34:16;26.83;;;12.97;;
67272;SDS011;54190;49.770;9.250;2023-02-15T06:36:41;29.23;;;13.77;;
67272;SDS011;54190;49.770;9.250;2023-02-15T06:39:07;26.73;;;13.00;;
67272;SDS011;54190;49.770;9.250;2023-02-15T06:41:33;26.80;;;12.40;;
67272;SDS011;54190;49.770;9.250;2023-02-15T06:43:58;27.13;;;13.53;;
67272;SDS011;54190;49.770;9.250;2023-02-15T06:46:24;23.87;;;11.97;;
67272;SDS011;54190;49.770;9.250;2023-02-15T06:48:50;28.97;;;14.07;;
67272;SDS011;54190;49.770;9.250;2023-02-15T06:51:15;25.60;;;12.50;;
67272;SDS011;54190;49.770;9.250;2023-02-15T06:53:41;27.93;;;12.87;;
67272;SDS011;54190;49.770;9.250;2023-02-15T06:56:08;24.90;;;13.03;;
67272;SDS011;54190;49.770;9.250;2023-02-15T06:58:38;30.93;;;14.70;;
67272;SDS011;54190;49.770;9.250;2023-02-15T07:01:04;25.40;;;13.43;;
67272;SDS011;54190;49.770;9.250;2023-02-15T07:03:31;30.90;;;17.80;;
67272;SDS011;54190;49.770;9.250;2023-02-15T07:05:58;30.97;;;16.90;;
67272;SDS011;54190;49.770;9.250;2023-02-15T07:08:25;27.23;;;13.03;;
67272;SDS011;54190;49.770;9.250;2023-02-15T07:10:52;23.83;;;12.53;;
67272;SDS011;54190;49.770;9.250;2023-02-15T07:13:20;24.77;;;12.57;;
67272;SDS011;54190;49.770;9.250;2023-02-15T07:15:46;26.70;;;13.40;;
67272;SDS011;54190;49.770;9.250;2023-02-15T07:18:13;25.47;;;13.50;;
67272;SDS011;54190;49.770;9.250;2023-02-15T07:20:39;21.57;;;12.47;;
67272;SDS011;54190;49.770;9.250;2023-02-15T07:23:06;24.57;;;12.17;;
67272;SDS011;54190;49.770;9.250;2023-02-15T07:25:33;25.50;;;13.00;;
67272;SDS011;54190;49.770;9.250;2023-02-15T07:27:59;22.00;;;12.57;;
67272;SDS011;54190;49.770;9.250;2023-02-15T07:30:26;21.70;;;12.13;;
67272;SDS011;54190;49.770;9.250;2023-02-15T07:32:56;18.97;;;11.10;;
67272;SDS011;54190;49.770;9.250;2023-02-15T07:35:51;20.97;;;11.53;;
67272;SDS011;54190;49.770;9.250;2023-02-15T07:38:19;20.67;;;11.73;;
67272;SDS011;54190;49.770;9.250;2023-02-15T07:40:45;16.87;;;10.60;;
67272;SDS011;54190;49.770;9.250;2023-02-15T07:43:11;20.47;;;11.80;;
67272;SDS011;54190;49.770;9.250;2023-02-15T07:45:37;19.53;;;11.23;;
67272;SDS011;54190;49.770;9.250;2023-02-15T07:48:04;18.27;;;11.03;;
67272;SDS011;54190;49.770;9.250;2023-02-15T07:50:30;19.80;;;12.43;;
67272;SDS011;54190;49.770;9.250;2023-02-15T07:52:56;21.57;;;12.30;;
67272;SDS011;54190;49.770;9.250;2023-02-15T07:55:22;22.70;;;11.33;;
67272;SDS011;54190;49.770;9.250;2023-02-15T07:57:48;18.90;;;11.27;;
67272;SDS011;54190;49.770;9.250;2023-02-15T08:00:16;20.60;;;10.77;;
67272;SDS011;54190;49.770;9.250;2023-02-15T08:02:49;22.90;;;13.77;;
67272;SDS011;54190;49.770;9.250;2023-02-15T08:05:35;22.20;;;13.00;;
67272;SDS011;54190;49.770;9.250;2023-02-15T08:08:01;21.57;;;11.03;;
67272;SDS011;54190;49.770;9.250;2023-02-15T08:10:27;19.40;;;11.00;;
67272;SDS011;54190;49.770;9.250;2023-02-15T08:13:12;19.93;;;10.83;;
67272;SDS011;54190;49.770;9.250;2023-02-15T08:15:38;19.97;;;11.27;;
67272;SDS011;54190;49.770;9.250;2023-02-15T08:18:03;21.17;;;11.20;;
67272;SDS011;54190;49.770;9.250;2023-02-15T08:20:29;19.70;;;11.60;;
67272;SDS011;54190;49.770;9.250;2023-02-15T08:22:55;21.53;;;12.57;;
67272;SDS011;54190;49.770;9.250;2023-02-15T08:25:21;19.80;;;11.70;;
67272;SDS011;54190;49.770;9.250;2023-02-15T08:27:46;22.23;;;13.27;;
67272;SDS011;54190;49.770;9.250;2023-02-15T08:30:12;21.77;;;11.97;;
67272;SDS011;54190;49.770;9.250;2023-02-15T08:32:39;21.60;;;12.67;;
67272;SDS011;54190;49.770;9.250;2023-02-15T08:35:05;20.63;;;11.37;;
67272;SDS011;54190;49.770;9.250;2023-02-15T08:37:31;19.30;;;12.33;;
67272;SDS011;54190;49.770;9.250;2023-02-15T08:39:57;20.70;;;11.83;;
67272;SDS011;54190;49.770;9.250;2023-02-15T08:42:23;19.40;;;12.20;;
67272;SDS011;54190;49.770;9.250;2023-02-15T08:44:49;22.93;;;11.30;;
67272;SDS011;54190;49.770;9.250;2023-02-15T08:47:16;21.77;;;12.43;;
67272;SDS011;54190;49.770;9.250;2023-02-15T08:49:42;22.30;;;11.93;;
67272;SDS011;54190;49.770;9.250;2023-02-15T08:52:08;22.60;;;12.77;;
67272;SDS011;54190;49.770;9.250;2023-02-15T08:54:33;19.10;;;11.07;;
67272;SDS011;54190;49.770;9.250;2023-02-15T08:56:59;19.10;;;11.90;;
67272;SDS011;54190;49.770;9.250;2023-02-15T08:59:25;20.10;;;11.87;;
67272;SDS011;54190;49.770;9.250;2023-02-15T09:01:52;21.20;;;12.63;;
67272;SDS011;54190;49.770;9.250;2023-02-15T09:04:19;16.27;;;11.10;;
67272;SDS011;54190;49.770;9.250;2023-02-15T09:06:46;21.63;;;12.87;;
67272;SDS011;54190;49.770;9.250;2023-02-15T09:09:13;19.97;;;11.60;;
67272;SDS011;54190;49.770;9.250;2023-02-15T09:11:40;22.63;;;13.10;;
67272;SDS011;54190;49.770;9.250;2023-02-15T09:14:09;20.13;;;12.87;;
67272;SDS011;54190;49.770;9.250;2023-02-15T09:16:39;24.10;;;12.43;;
67272;SDS011;54190;49.770;9.250;2023-02-15T09:19:05;23.03;;;13.37;;
67272;SDS011;54190;49.770;9.250;2023-02-15T09:21:32;24.33;;;13.67;;
67272;SDS011;54190;49.770;9.250;2023-02-15T09:24:01;19.53;;;12.17;;
67272;SDS011;54190;49.770;9.250;2023-02-15T09:26:30;23.07;;;12.90;;
67272;SDS011;54190;49.770;9.250;2023-02-15T09:28:58;20.83;;;12.60;;
67272;SDS011;54190;49.770;9.250;2023-02-15T09:31:26;24.27;;;12.20;;
67272;SDS011;54190;49.770;9.250;2023-02-15T09:33:53;23.03;;;13.40;;
67272;SDS011;54190;49.770;9.250;2023-02-15T09:36:20;21.53;;;13.50;;
67272;SDS011;54190;49.770;9.250;2023-02-15T09:38:46;25.10;;;14.23;;
67272;SDS011;54190;49.770;9.250;2023-02-15T09:52:30;23.40;;;13.47;;
67272;SDS011;54190;49.770;9.250;2023-02-15T09:55:22;21.53;;;12.60;;
67272;SDS011;54190;49.770;9.250;2023-02-15T10:01:26;20.67;;;12.17;;
67272;SDS011;54190;49.770;9.250;2023-02-15T10:04:09;21.80;;;12.60;;
67272;SDS011;54190;49.770;9.250;2023-02-15T10:10:01;21.70;;;12.87;;
67272;SDS011;54190;49.770;9.250;2023-02-15T10:15:57;19.80;;;12.57;;
67272;SDS011;54190;49.770;9.250;2023-02-15T10:18:50;20.43;;;11.83;;
67272;SDS011;54190;49.770;9.250;2023-02-15T10:27:19;22.00;;;13.00;;
67272;SDS011;54190;49.770;9.250;2023-02-15T10:32:25;24.43;;;13.87;;
67272;SDS011;54190;49.770;9.250;2023-02-15T10:51:25;23.40;;;14.20;;
67272;SDS011;54190;49.770;9.250;2023-02-15T10:57:13;24.37;;;14.03;;
67272;SDS011;54190;49.770;9.250;2023-02-15T11:08:07;23.87;;;14.53;;
67272;SDS011;54190;49.770;9.250;2023-02-15T11:10:36;24.93;;;15.07;;
67272;SDS011;54190;49.770;9.250;2023-02-15T11:13:06;25.20;;;14.67;;
67272;SDS011;54190;49.770;9.250;2023-02-15T11:15:41;22.77;;;15.30;;
67272;SDS011;54190;49.770;9.250;2023-02-15T11:21:02;21.67;;;14.43;;
67272;SDS011;54190;49.770;9.250;2023-02-15T11:23:32;21.90;;;14.43;;
67272;SDS011;54190;49.770;9.250;2023-02-15T11:26:04;21.37;;;13.47;;
67272;SDS011;54190;49.770;9.250;2023-02-15T11:28:56;18.80;;;12.90;;
67272;SDS011;54190;49.770;9.250;2023-02-15T11:31:26;22.77;;;14.50;;
67272;SDS011;54190;49.770;9.250;2023-02-15T11:34:00;23.33;;;14.13;;
67272;SDS011;54190;49.770;9.250;2023-02-15T11:36:32;25.93;;;14.77;;
67272;SDS011;54190;49.770;9.250;2023-02-15T11:39:02;25.33;;;15.17;;
67272;SDS011;54190;49.770;9.250;2023-02-15T11:41:35;21.93;;;14.30;;
67272;SDS011;54190;49.770;9.250;2023-02-15T11:44:27;22.73;;;14.73;;
67272;SDS011;54190;49.770;9.250;2023-02-15T11:46:57;23.43;;;14.10;;
67272;SDS011;54190;49.770;9.250;2023-02-15T11:49:33;23.13;;;14.33;;
67272;SDS011;54190;49.770;9.250;2023-02-15T11:52:07;21.13;;;13.33;;
67272;SDS011;54190;49.770;9.250;2023-02-15T11:54:37;22.17;;;14.20;;
67272;SDS011;54190;49.770;9.250;2023-02-15T11:59:41;24.33;;;15.07;;
67272;SDS011;54190;49.770;9.250;2023-02-15T12:02:18;22.00;;;14.40;;
67272;SDS011;54190;49.770;9.250;2023-02-15T12:04:49;21.80;;;13.57;;
67272;SDS011;54190;49.770;9.250;2023-02-15T12:07:28;21.40;;;13.10;;
67272;SDS011;54190;49.770;9.250;2023-02-15T12:12:42;20.50;;;13.27;;
67272;SDS011;54190;49.770;9.250;2023-02-15T12:15:08;19.60;;;13.07;;
67272;SDS011;54190;49.770;9.250;2023-02-15T12:17:40;22.00;;;14.37;;
67272;SDS011;54190;49.770;9.250;2023-02-15T12:22:39;22.70;;;14.80;;
67272;SDS011;54190;49.770;9.250;2023-02-15T12:25:22;22.30;;;13.63;;
67272;SDS011;54190;49.770;9.250;2023-02-15T12:27:58;23.20;;;14.63;;
67272;SDS011;54190;49.770;9.250;2023-02-15T12:33:25;23.83;;;14.57;;
67272;SDS011;54190;49.770;9.250;2023-02-15T12:35:59;26.27;;;14.53;;
67272;SDS011;54190;49.770;9.250;2023-02-15T12:38:33;21.67;;;13.47;;
67272;SDS011;54190;49.770;9.250;2023-02-15T12:41:03;23.27;;;14.43;;
67272;SDS011;54190;49.770;9.250;2023-02-15T12:43:46;24.00;;;13.73;;
67272;SDS011;54190;49.770;9.250;2023-02-15T12:46:24;24.17;;;14.83;;
67272;SDS011;54190;49.770;9.250;2023-02-15T12:54:15;24.00;;;15.13;;
67272;SDS011;54190;49.770;9.250;2023-02-15T12:59:55;20.83;;;14.13;;
67272;SDS011;54190;49.770;9.250;2023-02-15T13:05:19;22.97;;;14.67;;
67272;SDS011;54190;49.770;9.250;2023-02-15T13:07:56;23.87;;;14.87;;
67272;SDS011;54190;49.770;9.250;2023-02-15T13:12:54;24.30;;;15.00;;
67272;SDS011;54190;49.770;9.250;2023-02-15T13:15:23;22.50;;;14.97;;
67272;SDS011;54190;49.770;9.250;2023-02-15T13:17:52;27.40;;;15.67;;
67272;SDS011;54190;49.770;9.250;2023-02-15T13:20:20;27.60;;;17.00;;
67272;SDS011;54190;49.770;9.250;2023-02-15T13:22:49;28.27;;;16.50;;
67272;SDS011;54190;49.770;9.250;2023-02-15T13:25:18;27.70;;;16.40;;
67272;SDS011;54190;49.770;9.250;2023-02-15T13:27:56;25.37;;;15.50;;
67272;SDS011;54190;49.770;9.250;2023-02-15T13:32:53;24.90;;;15.27;;
67272;SDS011;54190;49.770;9.250;2023-02-15T13:35:22;23.37;;;15.00;;
67272;SDS011;54190;49.770;9.250;2023-02-15T13:46:12;26.23;;;16.10;;
67272;SDS011;54190;49.770;9.250;2023-02-15T13:49:01;22.07;;;14.27;;
67272;SDS011;54190;49.770;9.250;2023-02-15T14:00:22;26.23;;;15.00;;
67272;SDS011;54190;49.770;9.250;2023-02-15T14:11:17;26.00;;;15.50;;
67272;SDS011;54190;49.770;9.250;2023-02-15T14:19:22;28.23;;;16.27;;
67272;SDS011;54190;49.770;9.250;2023-02-15T14:24:38;24.20;;;17.00;;
67272;SDS011;54190;49.770;9.250;2023-02-15T14:29:53;24.37;;;16.13;;
67272;SDS011;54190;49.770;9.250;2023-02-15T14:32:33;25.67;;;16.00;;
67272;SDS011;54190;49.770;9.250;2023-02-15T14:35:01;23.13;;;15.53;;
67272;SDS011;54190;49.770;9.250;2023-02-15T14:40:37;24.43;;;16.43;;
67272;SDS011;54190;49.770;9.250;2023-02-15T14:56:47;24.40;;;15.87;;
67272;SDS011;54190;49.770;9.250;2023-02-15T15:10:00;26.50;;;15.80;;
67272;SDS011;54190;49.770;9.250;2023-02-15T15:12:44;28.30;;;17.43;;
67272;SDS011;54190;49.770;9.250;2023-02-15T15:17:53;21.23;;;14.40;;
67272;SDS011;54190;49.770;9.250;2023-02-15T15:25:43;27.07;;;17.40;;
67272;SDS011;54190;49.770;9.250;2023-02-15T15:28:52;31.93;;;20.23;;
67272;SDS011;54190;49.770;9.250;2023-02-15T15:33:37;22.63;;;15.30;;
67272;SDS011;54190;49.770;9.250;2023-02-15T15:42:13;24.40;;;16.30;;
67272;SDS011;54190;49.770;9.250;2023-02-15T15:50:15;25.23;;;16.43;;
67272;SDS011;54190;49.770;9.250;2023-02-15T15:52:45;29.03;;;16.37;;
67272;SDS011;54190;49.770;9.250;2023-02-15T15:55:18;26.00;;;16.20;;
67272;SDS011;54190;49.770;9.250;2023-02-15T15:57:47;28.50;;;17.10;;
67272;SDS011;54190;49.770;9.250;2023-02-15T16:00:36;26.27;;;16.90;;
67272;SDS011;54190;49.770;9.250;2023-02-15T16:03:14;23.63;;;15.53;;
67272;SDS011;54190;49.770;9.250;2023-02-15T16:05:45;27.50;;;17.17;;
67272;SDS011;54190;49.770;9.250;2023-02-15T16:08:10;24.30;;;14.83;;
67272;SDS011;54190;49.770;9.250;2023-02-15T16:10:36;26.80;;;16.53;;
67272;SDS011;54190;49.770;9.250;2023-02-15T16:13:04;28.20;;;16.70;;
67272;SDS011;54190;49.770;9.250;2023-02-15T16:15:44;25.30;;;16.20;;
67272;SDS011;54190;49.770;9.250;2023-02-15T16:18:17;24.70;;;15.50;;
67272;SDS011;54190;49.770;9.250;2023-02-15T16:20:51;27.70;;;17.13;;
67272;SDS011;54190;49.770;9.250;2023-02-15T16:23:26;27.50;;;17.23;;
67272;SDS011;54190;49.770;9.250;2023-02-15T16:26:13;27.60;;;16.57;;
67272;SDS011;54190;49.770;9.250;2023-02-15T16:28:50;28.40;;;17.07;;
67272;SDS011;54190;49.770;9.250;2023-02-15T16:31:19;28.27;;;16.70;;
67272;SDS011;54190;49.770;9.250;2023-02-15T16:33:51;26.87;;;15.80;;
67272;SDS011;54190;49.770;9.250;2023-02-15T16:36:22;24.43;;;15.80;;
67272;SDS011;54190;49.770;9.250;2023-02-15T16:41:17;28.70;;;17.50;;
67272;SDS011;54190;49.770;9.250;2023-02-15T16:43:50;28.87;;;17.73;;
67272;SDS011;54190;49.770;9.250;2023-02-15T16:46:24;30.07;;;17.40;;
67272;SDS011;54190;49.770;9.250;2023-02-15T16:48:56;26.23;;;16.07;;
67272;SDS011;54190;49.770;9.250;2023-02-15T16:51:30;39.10;;;22.77;;
67272;SDS011;54190;49.770;9.250;2023-02-15T16:54:05;33.53;;;18.70;;
67272;SDS011;54190;49.770;9.250;2023-02-15T16:56:33;33.50;;;19.03;;
67272;SDS011;54190;49.770;9.250;2023-02-15T16:58:59;30.30;;;19.70;;
67272;SDS011;54190;49.770;9.250;2023-02-15T17:01:27;30.57;;;17.50;;
67272;SDS011;54190;49.770;9.250;2023-02-15T17:04:12;28.60;;;17.20;;
67272;SDS011;54190;49.770;9.250;2023-02-15T17:09:25;29.07;;;16.83;;
67272;SDS011;54190;49.770;9.250;2023-02-15T17:11:51;29.70;;;16.60;;
67272;SDS011;54190;49.770;9.250;2023-02-15T17:14:26;27.43;;;16.70;;
67272;SDS011;54190;49.770;9.250;2023-02-15T17:16:54;27.17;;;17.70;;
67272;SDS011;54190;49.770;9.250;2023-02-15T17:19:32;25.40;;;16.07;;
67272;SDS011;54190;49.770;9.250;2023-02-15T17:22:14;26.80;;;16.40;;
67272;SDS011;54190;49.770;9.250;2023-02-15T17:24:59;26.00;;;16.70;;
67272;SDS011;54190;49.770;9.250;2023-02-15T17:27:28;28.07;;;17.20;;
67272;SDS011;54190;49.770;9.250;2023-02-15T17:29:59;29.60;;;17.70;;
67272;SDS011;54190;49.770;9.250;2023-02-15T17:32:27;33.03;;;18.77;;
67272;SDS011;54190;49.770;9.250;2023-02-15T17:37:54;27.43;;;17.13;;
67272;SDS011;54190;49.770;9.250;2023-02-15T17:40:23;27.33;;;16.93;;
67272;SDS011;54190;49.770;9.250;2023-02-15T17:42:54;30.60;;;16.93;;
67272;SDS011;54190;49.770;9.250;2023-02-15T17:45:20;27.10;;;16.70;;
67272;SDS011;54190;49.770;9.250;2023-02-15T17:47:47;28.10;;;17.50;;
67272;SDS011;54190;49.770;9.250;2023-02-15T17:50:21;28.67;;;17.30;;
67272;SDS011;54190;49.770;9.250;2023-02-15T17:52:49;29.13;;;17.20;;
67272;SDS011;54190;49.770;9.250;2023-02-15T17:55:16;31.20;;;17.20;;
67272;SDS011;54190;49.770;9.250;2023-02-15T17:58:03;33.50;;;18.33;;
67272;SDS011;54190;49.770;9.250;2023-02-15T18:00:31;26.90;;;17.13;;
67272;SDS011;54190;49.770;9.250;2023-02-15T18:03:25;26.80;;;16.30;;
67272;SDS011;54190;49.770;9.250;2023-02-15T18:06:16;30.27;;;17.17;;
67272;SDS011;54190;49.770;9.250;2023-02-15T18:09:00;28.50;;;16.70;;
67272;SDS011;54190;49.770;9.250;2023-02-15T18:11:44;30.77;;;17.47;;